createdAt,value
2018-06-03T00:01:02.003Z,5.20
2018-06-03T00:03:29.873Z,5.10
2018-06-03T00:05:58.052Z,4.43
2018-06-03T00:08:25.776Z,6.25
2018-06-03T00:10:53.319Z,5.10
2018-06-03T00:13:20.875Z,5.45
2018-06-03T00:15:48.422Z,6.00
2018-06-03T00:18:15.986Z,5.25
2018-06-03T00:21:07.394Z,5.20
2018-06-03T00:23:34.901Z,7.00
2018-06-03T00:26:04.078Z,5.10
2018-06-03T00:28:31.635Z,6.00
2018-06-03T00:30:59.164Z,5.10
2018-06-03T00:33:26.682Z,6.55
2018-06-03T00:36:06.110Z,4.90
2018-06-03T00:38:33.663Z,4.30
2018-06-03T00:41:01.182Z,5.00
2018-06-03T00:43:28.730Z,4.72
2018-06-03T00:45:57.047Z,5.68
2018-06-03T00:48:24.569Z,5.05
2018-06-03T00:50:52.101Z,5.45
2018-06-03T00:53:19.634Z,4.72
2018-06-03T00:55:47.160Z,5.20
2018-06-03T00:58:14.746Z,5.80
2018-06-03T01:00:43.044Z,5.78
2018-06-03T01:03:10.578Z,4.62
2018-06-03T01:05:38.933Z,4.62
2018-06-03T01:08:06.505Z,4.53
2018-06-03T01:10:34.048Z,5.30
2018-06-03T01:13:01.590Z,4.60
2018-06-03T01:15:29.109Z,5.30
2018-06-03T01:17:56.640Z,5.68
2018-06-03T01:20:24.337Z,5.57
2018-06-03T01:22:51.855Z,4.62
2018-06-03T01:25:19.369Z,4.70
2018-06-03T01:27:48.427Z,5.18
2018-06-03T01:30:16.010Z,4.57
2018-06-03T01:32:43.540Z,4.90
2018-06-03T01:35:11.130Z,5.22
2018-06-03T01:37:38.652Z,5.47
2018-06-03T01:40:06.937Z,6.47
2018-06-03T01:42:35.254Z,5.35
2018-06-03T01:45:02.809Z,5.40
2018-06-03T01:47:30.330Z,5.20
2018-06-03T01:49:57.910Z,4.97
2018-06-03T01:52:26.188Z,5.40
2018-06-03T01:54:54.472Z,5.78
2018-06-03T01:57:22.777Z,5.40
2018-06-03T01:59:50.294Z,6.30
2018-06-03T02:02:17.806Z,6.25
2018-06-03T02:04:45.477Z,7.18
2018-06-03T02:07:13.032Z,5.30
2018-06-03T02:09:40.539Z,6.00
2018-06-03T02:12:08.076Z,5.90
2018-06-03T02:14:35.635Z,6.10
2018-06-03T02:17:03.207Z,5.12
2018-06-03T02:19:30.749Z,5.28
2018-06-03T02:21:58.477Z,5.15
2018-06-03T02:24:26.765Z,4.95
2018-06-03T02:26:55.811Z,5.40
2018-06-03T02:29:23.369Z,5.20
2018-06-03T02:31:50.895Z,5.97
2018-06-03T02:34:19.202Z,5.00
2018-06-03T02:36:47.481Z,5.93
2018-06-03T02:39:15.758Z,5.28
2018-06-03T02:41:44.821Z,5.40
2018-06-03T02:44:12.353Z,6.10
2018-06-03T02:46:39.862Z,5.40
2018-06-03T02:49:08.183Z,5.35
2018-06-03T02:51:35.702Z,5.20
2018-06-03T02:54:04.732Z,5.32
2018-06-03T02:56:33.044Z,6.55
2018-06-03T02:59:00.602Z,5.40
2018-06-03T03:01:28.114Z,5.43
2018-06-03T03:03:55.653Z,6.47
2018-06-03T03:06:23.175Z,5.78
2018-06-03T03:08:51.479Z,6.25
2018-06-03T03:11:19.035Z,6.05
2018-06-03T03:13:46.568Z,5.40
2018-06-03T03:16:14.876Z,5.68
2018-06-03T03:18:42.406Z,5.70
2018-06-03T03:21:10.733Z,6.07
2018-06-03T03:23:38.500Z,6.68
2018-06-03T03:26:06.055Z,6.95
2018-06-03T03:28:33.564Z,6.28
2018-06-03T03:31:01.085Z,5.93
2018-06-03T03:33:28.631Z,6.57
2018-06-03T03:35:56.911Z,8.00
2018-06-03T03:38:25.198Z,6.35
2018-06-03T03:40:53.504Z,6.62
2018-06-03T03:43:21.020Z,7.28
2018-06-03T03:45:48.551Z,5.85
2018-06-03T03:48:16.105Z,5.85
2018-06-03T03:50:43.618Z,6.78
2018-06-03T03:53:11.129Z,6.70
2018-06-03T03:55:38.660Z,6.82
2018-06-03T03:58:06.963Z,6.62
2018-06-03T04:00:34.478Z,7.50
2018-06-03T04:03:02.789Z,6.82
2018-06-03T04:05:31.065Z,8.35
2018-06-03T04:07:59.350Z,6.70
2018-06-03T04:10:27.649Z,7.65
2018-06-03T04:12:55.176Z,6.70
2018-06-03T04:15:23.448Z,6.78
2018-06-03T04:17:51.040Z,7.87
2018-06-03T04:20:19.318Z,7.07
2018-06-03T04:22:47.606Z,7.22
2018-06-03T04:25:15.985Z,7.22
2018-06-03T04:27:44.295Z,6.95
2018-06-03T04:30:11.806Z,7.05
2018-06-03T04:32:40.844Z,6.53
2018-06-03T04:35:08.368Z,6.75
2018-06-03T04:37:35.881Z,6.65
2018-06-03T04:40:03.424Z,8.85
2018-06-03T04:42:31.709Z,7.12
2018-06-03T04:44:59.992Z,8.75
2018-06-03T04:47:28.362Z,9.27
2018-06-03T04:49:56.658Z,6.65
2018-06-03T04:52:24.940Z,6.60
2018-06-03T04:54:53.233Z,7.15
2018-06-03T04:57:20.805Z,6.72
2018-06-03T04:59:48.354Z,6.78
2018-06-03T05:02:15.925Z,6.78
2018-06-03T05:04:43.448Z,6.80
2018-06-03T05:07:12.641Z,6.18
2018-06-03T05:09:40.167Z,6.07
2018-06-03T05:12:07.681Z,6.32
2018-06-03T05:14:35.206Z,6.12
2018-06-03T05:17:02.743Z,6.45
2018-06-03T05:19:30.255Z,6.75
2018-06-03T05:21:57.784Z,6.05
2018-06-03T05:24:25.316Z,6.35
2018-06-03T05:26:53.736Z,5.90
2018-06-03T05:29:21.251Z,6.12
2018-06-03T05:31:49.559Z,5.90
2018-06-03T05:34:17.835Z,6.00
2018-06-03T05:36:45.369Z,6.35
2018-06-03T05:39:12.926Z,5.87
2018-06-03T05:41:40.465Z,5.87
2018-06-03T05:44:08.019Z,5.82
2018-06-03T05:46:35.541Z,8.00
2018-06-03T05:49:03.837Z,6.18
2018-06-03T05:51:32.123Z,5.78
2018-06-03T05:54:00.426Z,5.10
2018-06-03T05:56:27.941Z,5.90
2018-06-03T05:58:55.540Z,5.78
2018-06-03T06:01:23.077Z,5.12
2018-06-03T06:03:50.582Z,5.20
2018-06-03T06:06:18.095Z,5.45
2018-06-03T06:08:46.428Z,5.15
2018-06-03T06:11:13.990Z,5.28
2018-06-03T06:13:41.509Z,6.10
2018-06-03T06:16:09.042Z,4.72
2018-06-03T06:18:36.557Z,4.53
2018-06-03T06:21:04.832Z,5.57
2018-06-03T06:23:33.134Z,5.25
2018-06-03T06:26:00.645Z,4.70
2018-06-03T06:28:28.221Z,5.15
2018-06-03T06:30:55.753Z,4.97
2018-06-03T06:33:23.267Z,5.10
2018-06-03T06:35:51.584Z,4.82
2018-06-03T06:38:19.118Z,4.37
2018-06-03T06:40:47.423Z,7.70
2018-06-03T06:43:14.964Z,4.30
2018-06-03T06:45:42.466Z,4.53
2018-06-03T06:48:10.029Z,5.18
2018-06-03T06:50:37.551Z,5.75
2018-06-03T06:53:33.306Z,3.80
2018-06-03T06:56:01.784Z,3.80
2018-06-03T06:58:30.211Z,4.28
2018-06-03T07:00:58.637Z,4.03
2018-06-03T07:03:26.773Z,3.77
2018-06-03T07:05:55.192Z,4.12
2018-06-03T07:08:24.285Z,3.65
2018-06-03T07:10:52.402Z,4.10
2018-06-03T07:13:20.859Z,3.72
2018-06-03T07:15:49.007Z,3.98
2018-06-03T07:18:17.489Z,3.70
2018-06-03T07:20:45.923Z,8.30
2018-06-03T07:23:14.401Z,4.80
2018-06-03T07:25:42.797Z,3.77
2018-06-03T07:28:11.250Z,3.90
2018-06-03T07:30:39.914Z,3.90
2018-06-03T07:33:08.314Z,4.15
2018-06-03T07:35:37.048Z,3.83
2018-06-03T07:38:05.481Z,3.72
2018-06-03T07:40:33.906Z,3.50
2018-06-03T07:43:02.139Z,3.47
2018-06-03T07:45:30.602Z,3.30
2018-06-03T07:47:59.046Z,5.15
2018-06-03T07:50:27.240Z,3.83
2018-06-03T07:52:55.616Z,3.67
2018-06-03T07:55:24.037Z,3.42
2018-06-03T07:57:53.140Z,3.40
2018-06-03T08:00:21.956Z,3.77
2018-06-03T08:02:50.397Z,3.45
2018-06-03T08:05:18.838Z,2.90
2018-06-03T08:07:47.063Z,3.00
2018-06-03T08:10:15.633Z,2.70
2018-06-03T08:12:43.964Z,2.83
2018-06-03T08:15:12.121Z,2.47
2018-06-03T08:17:40.651Z,2.50
2018-06-03T08:20:09.081Z,3.72
2018-06-03T08:22:37.526Z,2.33
2018-06-03T08:25:05.711Z,2.70
2018-06-03T08:27:33.821Z,2.35
2018-06-03T08:30:02.441Z,2.47
2018-06-03T08:32:31.199Z,2.10
2018-06-03T08:34:59.855Z,2.00
2018-06-03T08:37:27.988Z,2.92
2018-06-03T08:39:56.414Z,2.10
2018-06-03T08:42:24.830Z,1.80
2018-06-03T08:44:53.298Z,2.17
2018-06-03T08:47:21.718Z,1.95
2018-06-03T08:49:50.234Z,2.00
2018-06-03T08:52:18.676Z,2.20
2018-06-03T08:54:47.088Z,1.98
2018-06-03T08:57:15.520Z,1.82
2018-06-03T08:59:43.969Z,2.47
2018-06-03T09:02:12.494Z,1.60
2018-06-03T09:04:40.686Z,1.60
2018-06-03T09:07:09.138Z,2.12
2018-06-03T09:09:37.569Z,2.55
2018-06-03T09:12:07.094Z,2.20
2018-06-03T09:14:35.627Z,1.80
2018-06-03T09:17:03.761Z,1.85
2018-06-03T09:19:32.185Z,1.70
2018-06-03T09:22:00.391Z,2.30
2018-06-03T09:24:28.505Z,1.92
2018-06-03T09:26:57.013Z,2.25
2018-06-03T09:29:26.557Z,2.22
2018-06-03T09:31:54.663Z,2.45
2018-06-03T09:34:24.302Z,2.08
2018-06-03T09:36:52.791Z,1.70
2018-06-03T09:39:21.269Z,1.95
2018-06-03T09:41:49.761Z,2.17
2018-06-03T09:44:18.293Z,2.20
2018-06-03T09:46:46.781Z,2.02
2018-06-03T09:49:15.351Z,2.08
2018-06-03T09:51:43.882Z,2.30
2018-06-03T09:54:12.383Z,2.55
2018-06-03T09:56:40.869Z,2.50
2018-06-03T09:59:09.345Z,1.50
2018-06-03T10:01:37.877Z,1.27
2018-06-03T10:04:06.338Z,3.75
2018-06-03T10:06:34.829Z,1.47
2018-06-03T10:09:03.645Z,1.75
2018-06-03T10:11:31.778Z,1.30
2018-06-03T10:14:00.208Z,1.60
2018-06-03T10:16:28.397Z,1.55
2018-06-03T10:18:56.828Z,1.40
2018-06-03T10:21:25.363Z,1.52
2018-06-03T10:23:53.821Z,8.90
2018-06-03T10:26:22.240Z,4.15
2018-06-03T10:28:50.384Z,1.40
2018-06-03T10:31:26.768Z,1.32
2018-06-03T10:33:55.579Z,1.55
2018-06-03T10:36:24.177Z,2.42
2018-06-03T10:38:52.653Z,1.60
2018-06-03T10:41:20.837Z,1.67
2018-06-03T10:43:49.039Z,3.10
2018-06-03T10:46:17.121Z,1.50
2018-06-03T10:48:45.590Z,2.30
2018-06-03T10:51:14.093Z,2.42
2018-06-03T10:53:43.258Z,1.30
2018-06-03T10:56:11.702Z,1.80
2018-06-03T10:58:40.184Z,1.75
2018-06-03T11:01:08.722Z,2.30
2018-06-03T11:03:37.143Z,2.20
2018-06-03T11:06:06.688Z,1.85
2018-06-03T11:08:35.137Z,1.72
2018-06-03T11:11:03.624Z,1.82
2018-06-03T11:13:32.087Z,2.33
2018-06-03T11:16:00.566Z,1.77
2018-06-03T11:18:29.012Z,1.90
2018-06-03T11:20:57.477Z,2.00
2018-06-03T11:23:26.515Z,3.83
2018-06-03T11:25:54.696Z,1.45
2018-06-03T11:28:22.848Z,1.30
2018-06-03T11:30:51.799Z,1.10
2018-06-03T11:33:20.250Z,1.30
2018-06-03T11:35:48.520Z,2.17
2018-06-03T11:38:17.271Z,1.35
2018-06-03T11:40:45.694Z,1.10
2018-06-03T11:43:14.142Z,1.57
2018-06-03T11:45:42.586Z,1.07
2018-06-03T11:48:11.041Z,1.70
2018-06-03T11:50:39.432Z,2.90
2018-06-03T11:53:07.946Z,1.10
2018-06-03T11:55:36.398Z,1.50
2018-06-03T11:58:41.351Z,1.05
2018-06-03T12:01:10.262Z,1.30
2018-06-03T12:03:38.702Z,1.72
2018-06-03T12:06:07.158Z,2.17
2018-06-03T12:08:35.597Z,1.35
2018-06-03T12:11:04.107Z,1.17
2018-06-03T12:13:32.640Z,2.58
2018-06-03T12:16:01.105Z,1.05
2018-06-03T12:18:29.558Z,1.27
2018-06-03T12:20:58.015Z,1.40
2018-06-03T12:23:26.449Z,2.47
2018-06-03T12:25:54.994Z,1.27
2018-06-03T12:28:23.498Z,1.60
2018-06-03T12:30:51.946Z,1.05
2018-06-03T12:33:20.373Z,1.62
2018-06-03T12:35:48.816Z,1.75
2018-06-03T12:38:17.297Z,1.52
2018-06-03T12:40:45.701Z,1.60
2018-06-03T12:43:13.807Z,1.55
2018-06-03T12:45:42.360Z,2.60
2018-06-03T12:48:10.758Z,1.35
2018-06-03T12:50:38.884Z,2.83
2018-06-03T12:53:07.348Z,1.50
2018-06-03T12:55:35.774Z,2.17
2018-06-03T12:58:04.223Z,1.55
2018-06-03T13:00:32.644Z,1.40
2018-06-03T13:03:01.137Z,2.22
2018-06-03T13:05:29.617Z,1.50
2018-06-03T13:07:58.098Z,1.25
2018-06-03T13:10:26.517Z,1.80
2018-06-03T13:12:54.926Z,2.75
2018-06-03T13:15:23.373Z,2.00
2018-06-03T13:17:51.995Z,1.70
2018-06-03T13:20:20.531Z,2.00
2018-06-03T13:22:48.957Z,1.80
2018-06-03T13:25:17.368Z,2.50
2018-06-03T13:27:45.784Z,2.67
2018-06-03T13:30:14.240Z,2.58
2018-06-03T13:32:42.665Z,1.85
2018-06-03T13:35:11.145Z,1.80
2018-06-03T13:37:39.634Z,1.80
2018-06-03T13:40:08.441Z,1.75
2018-06-03T13:42:36.867Z,1.90
2018-06-03T13:45:05.376Z,2.17
2018-06-03T13:47:33.792Z,1.90
2018-06-03T13:50:02.215Z,2.20
2018-06-03T13:52:30.636Z,3.00
2018-06-03T13:54:59.087Z,2.02
2018-06-03T13:57:27.540Z,3.60
2018-06-03T13:59:55.660Z,2.12
2018-06-03T14:02:24.064Z,2.00
2018-06-03T14:04:52.499Z,1.72
2018-06-03T14:07:20.913Z,2.30
2018-06-03T14:09:49.333Z,2.52
2018-06-03T14:12:17.756Z,1.77
2018-06-03T14:14:46.224Z,2.35
2018-06-03T14:17:14.702Z,2.00
2018-06-03T14:19:42.816Z,2.33
2018-06-03T14:22:11.278Z,2.47
2018-06-03T14:24:39.693Z,1.85
2018-06-03T14:27:08.141Z,2.00
2018-06-03T14:29:36.244Z,1.90
2018-06-03T14:32:04.665Z,1.62
2018-06-03T14:34:33.113Z,3.25
2018-06-03T14:37:01.544Z,1.70
2018-06-03T14:39:29.971Z,1.80
2018-06-03T14:41:58.589Z,2.22
2018-06-03T14:44:27.054Z,1.65
2018-06-03T14:46:55.501Z,2.35
2018-06-03T14:49:23.674Z,2.40
2018-06-03T14:51:52.101Z,1.75
2018-06-03T14:54:20.616Z,1.52
2018-06-03T14:56:49.116Z,2.52
2018-06-03T14:59:17.494Z,1.77
2018-06-03T15:01:45.582Z,1.75
2018-06-03T15:04:14.047Z,3.20
2018-06-03T15:06:42.181Z,1.50
2018-06-03T15:09:10.910Z,2.17
2018-06-03T15:11:39.385Z,2.92
2018-06-03T15:14:07.884Z,1.70
2018-06-03T15:16:36.287Z,1.90
2018-06-03T15:19:04.433Z,1.60
2018-06-03T15:21:32.920Z,1.77
2018-06-03T15:24:01.357Z,1.87
2018-06-03T15:26:29.786Z,1.82
2018-06-03T15:28:58.227Z,2.12
2018-06-03T15:31:26.339Z,2.67
2018-06-03T15:33:54.768Z,2.45
2018-06-03T15:36:23.226Z,2.05
2018-06-03T15:38:51.698Z,5.53
2018-06-03T15:41:20.128Z,2.42
2018-06-03T15:43:48.775Z,1.70
2018-06-03T15:46:16.844Z,2.42
2018-06-03T15:48:45.350Z,2.05
2018-06-03T15:51:13.980Z,1.90
2018-06-03T15:53:42.438Z,2.98
2018-06-03T15:56:10.843Z,2.17
2018-06-03T15:58:39.313Z,2.22
2018-06-03T16:01:07.728Z,1.77
2018-06-03T16:03:36.162Z,2.40
2018-06-03T16:06:04.669Z,1.60
2018-06-03T16:08:33.092Z,1.70
2018-06-03T16:11:01.530Z,1.75
2018-06-03T16:13:29.997Z,1.50
2018-06-03T16:15:58.475Z,1.87
2018-06-03T16:18:26.572Z,1.87
2018-06-03T16:20:55.014Z,2.60
2018-06-03T16:23:23.453Z,2.58
2018-06-03T16:25:51.901Z,3.47
2018-06-03T16:28:20.085Z,1.82
2018-06-03T16:30:48.188Z,1.90
2018-06-03T16:33:16.602Z,1.90
2018-06-03T16:35:45.045Z,2.30
2018-06-03T16:38:13.477Z,1.70
2018-06-03T16:40:41.956Z,2.65
2018-06-03T16:43:10.652Z,2.08
2018-06-03T16:45:39.241Z,2.47
2018-06-03T16:48:07.679Z,1.85
2018-06-03T16:50:36.129Z,2.55
2018-06-03T16:53:04.241Z,1.75
2018-06-03T16:55:32.730Z,2.10
2018-06-03T16:58:01.163Z,2.17
2018-06-03T17:00:29.617Z,2.40
2018-06-03T17:02:58.022Z,2.40
2018-06-03T17:05:26.470Z,2.20
2018-06-03T17:07:54.871Z,2.60
2018-06-03T17:10:23.286Z,2.30
2018-06-03T17:12:51.877Z,2.00
2018-06-03T17:15:20.535Z,1.95
2018-06-03T17:17:48.964Z,2.12
2018-06-03T17:20:17.211Z,2.52
2018-06-03T17:22:45.578Z,5.30
2018-06-03T17:25:14.134Z,2.10
2018-06-03T17:27:42.584Z,3.10
2018-06-03T17:30:11.021Z,13.88
2018-06-03T17:32:39.447Z,9.78
2018-06-03T17:35:07.921Z,5.30
2018-06-03T17:37:36.370Z,3.05
2018-06-03T17:40:04.803Z,2.55
2018-06-03T17:42:33.307Z,3.08
2018-06-03T17:45:01.737Z,4.47
2018-06-03T17:47:30.317Z,3.95
2018-06-03T17:49:58.759Z,4.50
2018-06-03T17:52:26.865Z,4.00
2018-06-03T17:54:55.357Z,4.40
2018-06-03T17:57:23.743Z,4.10
2018-06-03T17:59:52.150Z,2.50
2018-06-03T18:02:20.670Z,2.85
2018-06-03T18:04:48.829Z,3.30
2018-06-03T18:07:17.225Z,2.30
2018-06-03T18:09:45.651Z,2.33
2018-06-03T18:12:14.073Z,2.60
2018-06-03T18:14:42.485Z,2.65
2018-06-03T18:17:10.928Z,4.42
2018-06-03T18:19:39.369Z,3.00
2018-06-03T18:22:07.536Z,4.10
2018-06-03T18:24:35.949Z,4.03
2018-06-03T18:27:04.412Z,2.92
2018-06-03T18:29:32.525Z,6.15
2018-06-03T18:32:01.031Z,2.47
2018-06-03T18:34:29.514Z,3.45
2018-06-03T18:36:58.546Z,3.35
2018-06-03T18:39:27.005Z,3.00
2018-06-03T18:41:55.474Z,2.62
2018-06-03T18:44:23.915Z,3.47
2018-06-03T18:46:52.072Z,3.25
2018-06-03T18:49:20.658Z,3.47
2018-06-03T18:51:49.136Z,3.02
2018-06-03T18:54:17.616Z,2.62
2018-06-03T18:56:46.093Z,3.95
2018-06-03T18:59:14.608Z,4.12
2018-06-03T19:01:43.060Z,2.90
2018-06-03T19:04:11.510Z,3.12
2018-06-03T19:06:39.671Z,2.77
2018-06-03T19:09:08.406Z,6.47
2018-06-03T19:11:36.912Z,2.83
2018-06-03T19:14:05.325Z,2.80
2018-06-03T19:16:33.772Z,2.95
2018-06-03T19:19:02.293Z,3.40
2018-06-03T19:21:30.701Z,2.85
2018-06-03T19:23:59.126Z,3.22
2018-06-03T19:26:27.578Z,3.40
2018-06-03T19:28:55.713Z,3.10
2018-06-03T19:31:24.124Z,3.20
2018-06-03T19:33:52.602Z,3.00
2018-06-03T19:36:21.083Z,2.92
2018-06-03T19:38:49.265Z,3.12
2018-06-03T19:41:17.773Z,3.25
2018-06-03T19:43:45.900Z,3.55
2018-06-03T19:46:14.337Z,3.10
2018-06-03T19:48:42.778Z,3.87
2018-06-03T19:51:11.378Z,3.15
2018-06-03T19:53:39.822Z,3.80
2018-06-03T19:56:08.345Z,3.90
2018-06-03T19:58:36.806Z,3.58
2018-06-03T20:01:05.262Z,4.22
2018-06-03T20:03:33.741Z,4.20
2018-06-03T20:06:02.189Z,3.80
2018-06-03T20:08:30.670Z,3.55
2018-06-03T20:10:59.125Z,4.05
2018-06-03T20:13:27.606Z,3.77
2018-06-03T20:15:56.040Z,3.45
2018-06-03T20:18:24.392Z,4.45
2018-06-03T20:20:52.838Z,4.12
2018-06-03T20:23:21.276Z,5.20
2018-06-03T20:25:49.801Z,4.50
2018-06-03T20:28:17.929Z,4.50
2018-06-03T20:30:46.340Z,4.72
2018-06-03T20:33:14.763Z,4.78
2018-06-03T20:35:43.219Z,5.00
2018-06-03T20:38:11.353Z,4.75
2018-06-03T20:40:39.821Z,4.95
2018-06-03T20:43:08.279Z,4.90
2018-06-03T20:45:36.386Z,6.83
2018-06-03T20:48:05.073Z,5.80
2018-06-03T20:50:33.584Z,6.90
2018-06-03T20:53:02.529Z,9.03
2018-06-03T20:55:30.975Z,6.95
2018-06-03T20:57:59.389Z,6.90
2018-06-03T21:00:27.521Z,7.00
2018-06-03T21:02:55.957Z,6.90
2018-06-03T21:05:24.061Z,6.58
2018-06-03T21:07:52.632Z,5.75
2018-06-03T21:10:21.178Z,5.97
2018-06-03T21:12:49.629Z,5.58
2018-06-03T21:15:18.028Z,6.28
2018-06-03T21:17:46.464Z,6.67
2018-06-03T21:20:15.089Z,6.28
2018-06-03T21:22:43.625Z,5.85
2018-06-03T21:25:12.099Z,5.62
2018-06-03T21:27:40.614Z,6.83
2018-06-03T21:30:09.169Z,7.92
2018-06-03T21:32:37.641Z,6.40
2018-06-03T21:35:06.554Z,7.15
2018-06-03T21:37:35.026Z,6.25
2018-06-03T21:40:03.540Z,6.55
2018-06-03T21:42:32.010Z,6.70
2018-06-03T21:45:00.434Z,6.92
2018-06-03T21:47:28.913Z,6.03
2018-06-03T21:49:57.316Z,7.60
2018-06-03T21:52:25.878Z,6.92
2018-06-03T21:54:54.450Z,7.37
2018-06-03T21:57:22.866Z,6.70
2018-06-03T21:59:51.302Z,6.60
2018-06-03T22:02:19.747Z,6.40
2018-06-03T22:04:48.195Z,6.65
2018-06-03T22:07:16.637Z,6.47
2018-06-03T22:09:45.089Z,6.70
2018-06-03T22:12:13.517Z,6.62
2018-06-03T22:14:41.931Z,7.53
2018-06-03T22:17:10.385Z,7.95
2018-06-03T22:19:38.810Z,6.70
2018-06-03T22:22:07.213Z,7.28
2018-06-03T22:24:35.665Z,7.22
2018-06-03T22:27:04.086Z,7.62
2018-06-03T22:29:32.495Z,7.50
2018-06-03T22:32:00.929Z,7.45
2018-06-03T22:34:29.089Z,7.22
2018-06-03T22:36:59.019Z,7.60
2018-06-03T22:39:27.596Z,7.47
2018-06-03T22:41:56.419Z,7.42
2018-06-03T22:44:25.835Z,7.50
2018-06-03T22:46:55.586Z,8.15
2018-06-03T22:49:24.920Z,8.00
2018-06-03T22:51:54.343Z,9.08
2018-06-03T22:54:24.595Z,8.35
2018-06-03T22:57:15.001Z,7.70
2018-06-03T22:59:43.793Z,8.10
2018-06-03T23:02:12.475Z,7.80
2018-06-03T23:04:41.280Z,8.05
2018-06-03T23:07:09.869Z,8.88
2018-06-03T23:09:38.535Z,7.67
2018-06-03T23:12:07.263Z,8.53
2018-06-03T23:14:35.859Z,8.00
2018-06-03T23:17:04.472Z,8.15
2018-06-03T23:19:32.948Z,8.30
2018-06-03T23:22:01.469Z,8.73
2018-06-03T23:24:29.906Z,8.00
2018-06-03T23:26:58.328Z,8.88
2018-06-03T23:29:26.781Z,8.40
2018-06-03T23:31:55.226Z,8.53
2018-06-03T23:34:23.761Z,8.70
2018-06-03T23:36:52.225Z,8.25
2018-06-03T23:39:20.640Z,9.03
2018-06-03T23:41:49.079Z,9.00
2018-06-03T23:44:17.537Z,8.58
2018-06-03T23:46:45.936Z,8.90
2018-06-03T23:49:14.361Z,8.85
2018-06-03T23:51:42.874Z,8.30
2018-06-03T23:54:11.308Z,9.00
2018-06-03T23:56:39.749Z,9.00
2018-06-03T23:59:08.357Z,9.50
